Time,TemperatureF,DewpointF,PressureIn,WindDirection,WindDirectionDegrees,WindSpeedMPH,WindSpeedGustMPH,Humidity,HourlyPrecipIn,Conditions,Clouds,dailyrainin,SoftwareType,DateUTC
2013-08-15 00:00:00,59.5,53.0,30.21,ESE,112,0.0,0.0,79,0.00,,---,0.00,VWS V14.01,2013-08-15 05:00:00,
2013-08-15 00:01:00,59.5,53.0,30.18,ESE,112,1.6,1.6,79,0.00,,---,0.00,VWS V14.01,2013-08-15 05:01:00,
2013-08-15 00:02:00,59.5,53.0,30.18,ESE,112,2.0,2.0,79,0.00,,---,0.00,VWS V14.01,2013-08-15 05:02:00,
2013-08-15 00:03:00,59.5,53.0,30.18,ESE,112,2.5,2.5,79,0.00,,---,0.00,VWS V14.01,2013-08-15 05:03:00,
2013-08-15 00:04:00,59.7,53.2,30.18,ESE,112,1.3,2.5,79,0.00,,---,0.00,VWS V14.01,2013-08-15 05:04:00,
2013-08-15 00:05:00,59.7,53.2,30.18,ESE,112,0.0,1.3,79,0.00,,---,0.00,VWS V14.01,2013-08-15 05:05:00,
2013-08-15 00:06:00,59.7,52.9,30.18,ESE,112,0.0,0.0,78,0.00,,---,0.00,VWS V14.01,2013-08-15 05:06:00,
2013-08-15 00:07:00,59.7,52.9,30.18,ESE,112,0.0,0.0,78,0.00,,---,0.00,VWS V14.01,2013-08-15 05:07:00,
2013-08-15 00:08:00,59.7,52.9,30.18,ESE,112,1.3,2.0,78,0.00,,---,0.00,VWS V14.01,2013-08-15 05:08:00,
2013-08-15 00:09:00,59.7,52.9,30.18,ESE,112,0.0,1.3,78,0.00,,---,0.00,VWS V14.01,2013-08-15 05:09:00,
2013-08-15 00:10:00,59.7,52.9,30.18,ESE,112,0.0,0.0,78,0.00,,---,0.00,VWS V14.01,2013-08-15 05:10:00,
2013-08-15 00:11:00,59.7,52.9,30.18,ESE,112,0.0,0.0,78,0.00,,---,0.00,VWS V14.01,2013-08-15 05:11:00,
2013-08-15 00:12:00,59.7,52.9,30.18,ESE,112,0.0,0.0,78,0.00,,---,0.00,VWS V14.01,2013-08-15 05:12:00,
2013-08-15 00:13:00,59.7,52.9,30.18,ESE,112,0.0,0.0,78,0.00,,---,0.00,VWS V14.01,2013-08-15 05:13:00,
2013-08-15 00:14:00,59.7,53.2,30.18,SE,135,1.1,1.1,79,0.00,,---,0.00,VWS V14.01,2013-08-15 05:14:00,
2013-08-15 00:15:00,59.7,53.2,30.18,SE,135,1.1,1.1,79,0.00,,---,0.00,VWS V14.01,2013-08-15 05:15:00,
2013-08-15 00:16:00,59.7,53.2,30.18,ESE,112,0.0,1.1,79,0.00,,---,0.00,VWS V14.01,2013-08-15 05:16:00,
2013-08-15 00:17:00,59.9,53.4,30.18,ESE,112,0.0,0.0,79,0.00,,---,0.00,VWS V14.01,2013-08-15 05:17:00,
2013-08-15 00:18:00,59.9,53.0,30.18,ESE,112,0.0,0.0,78,0.00,,---,0.00,VWS V14.01,2013-08-15 05:18:00,
2013-08-15 00:19:00,60.1,53.2,30.18,ESE,112,0.0,0.0,78,0.00,,---,0.00,VWS V14.01,2013-08-15 05:19:00,
2013-08-15 00:20:00,60.1,53.2,30.18,ESE,112,0.0,0.0,78,0.00,,---,0.00,VWS V14.01,2013-08-15 05:20:00,
2013-08-15 00:21:00,60.1,53.2,30.18,ESE,112,0.0,0.0,78,0.00,,---,0.00,VWS V14.01,2013-08-15 05:21:00,
2013-08-15 00:22:00,60.1,53.2,30.18,ESE,112,0.0,0.0,78,0.00,,---,0.00,VWS V14.01,2013-08-15 05:22:00,
2013-08-15 00:23:00,60.1,53.2,30.18,ESE,112,0.0,0.0,78,0.00,,---,0.00,VWS V14.01,2013-08-15 05:23:00,
2013-08-15 00:24:00,60.1,53.2,30.18,ESE,112,0.0,0.0,78,0.00,,---,0.00,VWS V14.01,2013-08-15 05:24:00,
2013-08-15 00:25:00,60.3,53.4,30.18,ESE,112,0.0,0.0,78,0.00,,---,0.00,VWS V14.01,2013-08-15 05:25:00,
2013-08-15 00:26:00,60.1,53.2,30.18,ESE,112,0.0,0.0,78,0.00,,---,0.00,VWS V14.01,2013-08-15 05:26:00,
2013-08-15 00:27:00,60.3,53.4,30.18,ESE,112,0.0,0.0,78,0.00,,---,0.00,VWS V14.01,2013-08-15 05:27:00,
2013-08-15 00:28:00,60.3,53.4,30.18,ESE,112,0.0,0.0,78,0.00,,---,0.00,VWS V14.01,2013-08-15 05:28:00,
2013-08-15 00:29:00,60.3,53.4,30.18,ESE,112,0.0,0.0,78,0.00,,---,0.00,VWS V14.01,2013-08-15 05:29:00,
2013-08-15 00:30:00,60.1,53.2,30.18,ESE,112,0.0,0.0,78,0.00,,---,0.00,VWS V14.01,2013-08-15 05:30:00,
2013-08-15 00:31:00,60.1,53.2,30.18,ESE,112,0.0,0.0,78,0.00,,---,0.00,VWS V14.01,2013-08-15 05:31:00,
2013-08-15 00:32:00,60.1,53.2,30.18,ESE,112,0.0,0.0,78,0.00,,---,0.00,VWS V14.01,2013-08-15 05:32:00,
2013-08-15 00:33:00,60.3,53.4,30.18,ESE,112,0.0,0.0,78,0.00,,---,0.00,VWS V14.01,2013-08-15 05:33:00,
2013-08-15 00:34:00,60.3,53.4,30.18,ESE,112,0.0,0.0,78,0.00,,---,0.00,VWS V14.01,2013-08-15 05:34:00,
2013-08-15 00:35:00,60.3,53.4,30.18,ESE,112,0.0,0.0,78,0.00,,---,0.00,VWS V14.01,2013-08-15 05:35:00,
2013-08-15 00:36:00,60.4,53.6,30.18,ESE,112,0.0,0.0,78,0.00,,---,0.00,VWS V14.01,2013-08-15 05:36:00,
2013-08-15 00:37:00,60.4,53.6,30.18,ESE,112,0.0,0.0,78,0.00,,---,0.00,VWS V14.01,2013-08-15 05:37:00,
2013-08-15 00:38:00,60.4,53.6,30.18,ESE,112,0.0,0.0,78,0.00,,---,0.00,VWS V14.01,2013-08-15 05:38:00,
2013-08-15 00:40:00,60.4,53.6,30.18,SE,135,0.0,0.0,78,0.00,,---,0.00,VWS V14.01,2013-08-15 05:40:00,
2013-08-15 00:41:00,60.3,53.0,30.18,ESE,112,0.0,0.0,77,0.00,,---,0.00,VWS V14.01,2013-08-15 05:41:00,
2013-08-15 00:42:00,60.1,52.5,30.18,ESE,112,0.0,0.0,76,0.00,,---,0.00,VWS V14.01,2013-08-15 05:42:00,
2013-08-15 00:43:00,60.1,52.5,30.18,ESE,112,0.0,0.0,76,0.00,,---,0.00,VWS V14.01,2013-08-15 05:43:00,
2013-08-15 00:44:00,60.1,52.5,30.18,ESE,112,0.0,0.0,76,0.00,,---,0.00,VWS V14.01,2013-08-15 05:44:00,
2013-08-15 00:46:00,59.9,52.3,30.18,ESE,112,0.0,0.0,76,0.00,,---,0.00,VWS V14.01,2013-08-15 05:46:00,
2013-08-15 00:47:00,59.9,52.3,30.18,ESE,112,1.1,2.0,76,0.00,,---,0.00,VWS V14.01,2013-08-15 05:47:00,
2013-08-15 00:48:00,59.9,52.7,30.18,ESE,112,0.0,1.1,77,0.00,,---,0.00,VWS V14.01,2013-08-15 05:48:00,
2013-08-15 00:49:00,59.9,52.7,30.18,South,180,0.0,0.0,77,0.00,,---,0.00,VWS V14.01,2013-08-15 05:49:00,
2013-08-15 00:50:00,59.9,52.7,30.18,SSE,158,1.6,1.6,77,0.00,,---,0.00,VWS V14.01,2013-08-15 05:50:00,
2013-08-15 00:51:00,59.9,52.7,30.18,ESE,112,1.6,1.6,77,0.00,,---,0.00,VWS V14.01,2013-08-15 05:51:00,
2013-08-15 00:52:00,59.9,52.7,30.18,SE,135,0.0,1.6,77,0.00,,---,0.00,VWS V14.01,2013-08-15 05:52:00,
2013-08-15 00:53:00,59.9,52.3,30.18,ESE,112,2.7,2.7,76,0.00,,---,0.00,VWS V14.01,2013-08-15 05:53:00,
2013-08-15 00:54:00,59.9,52.7,30.18,ESE,112,0.0,2.7,77,0.00,,---,0.00,VWS V14.01,2013-08-15 05:54:00,
2013-08-15 00:55:00,59.9,52.7,30.18,ESE,112,0.0,0.0,77,0.00,,---,0.00,VWS V14.01,2013-08-15 05:55:00,
2013-08-15 00:56:00,59.9,52.7,30.18,ESE,112,0.0,0.0,77,0.00,,---,0.00,VWS V14.01,2013-08-15 05:56:00,
2013-08-15 00:57:00,59.9,52.7,30.18,ESE,112,0.0,0.0,77,0.00,,---,0.00,VWS V14.01,2013-08-15 05:57:00,
2013-08-15 00:58:00,59.9,52.7,30.18,ESE,112,0.0,0.0,77,0.00,,---,0.00,VWS V14.01,2013-08-15 05:58:00,
2013-08-15 00:59:00,60.1,52.9,30.18,ESE,112,0.0,0.0,77,0.00,,---,0.00,VWS V14.01,2013-08-15 05:59:00,
2013-08-15 01:00:00,60.1,53.2,30.18,ESE,112,0.0,0.0,78,0.00,,---,0.00,VWS V14.01,2013-08-15 06:00:00,
2013-08-15 01:01:00,60.1,53.2,30.18,ESE,112,0.0,0.0,78,0.00,,---,0.00,VWS V14.01,2013-08-15 06:01:00,
2013-08-15 01:02:00,60.1,53.2,30.18,East,90,2.9,2.9,78,0.00,,---,0.00,VWS V14.01,2013-08-15 06:02:00,
2013-08-15 01:03:00,60.1,53.2,30.18,East,90,1.1,2.9,78,0.00,,---,0.00,VWS V14.01,2013-08-15 06:03:00,
2013-08-15 01:04:00,60.1,53.2,30.18,ESE,112,2.7,2.7,78,0.00,,---,0.00,VWS V14.01,2013-08-15 06:04:00,
2013-08-15 01:05:00,60.1,53.2,30.18,ESE,112,2.5,2.7,78,0.00,,---,0.00,VWS V14.01,2013-08-15 06:05:00,
2013-08-15 01:06:00,60.3,53.4,30.18,ESE,112,2.0,2.5,78,0.00,,---,0.00,VWS V14.01,2013-08-15 06:06:00,
2013-08-15 01:07:00,60.3,53.4,30.18,ESE,112,1.3,1.6,78,0.00,,---,0.00,VWS V14.01,2013-08-15 06:07:00,
2013-08-15 01:08:00,60.3,53.4,30.18,East,90,2.0,2.2,78,0.00,,---,0.00,VWS V14.01,2013-08-15 06:08:00,
2013-08-15 01:09:00,60.3,53.0,30.18,East,90,0.0,2.0,77,0.00,,---,0.00,VWS V14.01,2013-08-15 06:09:00,
2013-08-15 01:11:00,60.3,53.0,30.18,ESE,112,0.0,0.0,77,0.00,,---,0.00,VWS V14.01,2013-08-15 06:11:00,
2013-08-15 01:12:00,60.3,53.0,30.18,East,90,0.0,0.0,77,0.00,,---,0.00,VWS V14.01,2013-08-15 06:12:00,
2013-08-15 01:13:00,60.3,53.4,30.18,ESE,112,0.0,0.0,78,0.00,,---,0.00,VWS V14.01,2013-08-15 06:13:00,
2013-08-15 01:14:00,60.3,53.0,30.18,ESE,112,0.0,0.0,77,0.00,,---,0.00,VWS V14.01,2013-08-15 06:14:00,
2013-08-15 01:15:00,60.1,52.9,30.18,SE,135,2.5,2.5,77,0.00,,---,0.00,VWS V14.01,2013-08-15 06:15:00,
2013-08-15 01:16:00,60.1,52.9,30.18,SE,135,2.5,2.5,77,0.00,,---,0.00,VWS V14.01,2013-08-15 06:16:00,
2013-08-15 01:17:00,60.1,52.9,30.18,SE,135,1.3,2.5,77,0.00,,---,0.00,VWS V14.01,2013-08-15 06:17:00,
2013-08-15 01:18:00,60.1,52.5,30.18,SE,135,0.0,1.3,76,0.00,,---,0.00,VWS V14.01,2013-08-15 06:18:00,
2013-08-15 01:19:00,60.1,52.5,30.18,SE,135,0.0,0.0,76,0.00,,---,0.00,VWS V14.01,2013-08-15 06:19:00,
2013-08-15 01:20:00,60.1,52.9,30.18,ESE,112,2.2,2.2,77,0.00,,---,0.00,VWS V14.01,2013-08-15 06:20:00,
2013-08-15 01:21:00,60.1,52.9,30.18,ESE,112,2.2,2.2,77,0.00,,---,0.00,VWS V14.01,2013-08-15 06:21:00,
2013-08-15 01:22:00,60.1,52.9,30.18,ESE,112,0.0,2.2,77,0.00,,---,0.00,VWS V14.01,2013-08-15 06:22:00,
2013-08-15 01:23:00,60.1,52.9,30.18,ESE,112,1.6,1.6,77,0.00,,---,0.00,VWS V14.01,2013-08-15 06:23:00,
2013-08-15 01:24:00,60.1,52.9,30.18,ESE,112,0.9,1.6,77,0.00,,---,0.00,VWS V14.01,2013-08-15 06:24:00,
2013-08-15 01:25:00,60.1,52.5,30.18,SW,225,0.0,0.0,76,0.00,,---,0.00,VWS V14.01,2013-08-15 06:25:00,
2013-08-15 01:26:00,60.1,52.5,30.18,SW,225,0.0,0.0,76,0.00,,---,0.00,VWS V14.01,2013-08-15 06:26:00,
2013-08-15 01:27:00,59.9,52.3,30.18,SW,225,0.0,0.0,76,0.00,,---,0.00,VWS V14.01,2013-08-15 06:27:00,
2013-08-15 01:28:00,59.9,52.3,30.18,SW,225,0.0,0.0,76,0.00,,---,0.00,VWS V14.01,2013-08-15 06:28:00,
2013-08-15 01:29:00,59.7,52.2,30.18,SW,225,0.0,0.0,76,0.00,,---,0.00,VWS V14.01,2013-08-15 06:29:00,
2013-08-15 01:30:00,59.7,52.2,30.18,SW,225,0.0,0.0,76,0.00,,---,0.00,VWS V14.01,2013-08-15 06:30:00,
2013-08-15 01:31:00,59.7,52.2,30.18,SW,225,0.0,0.0,76,0.00,,---,0.00,VWS V14.01,2013-08-15 06:31:00,
2013-08-15 01:32:00,59.7,52.2,30.18,ENE,68,1.1,1.6,76,0.00,,---,0.00,VWS V14.01,2013-08-15 06:32:00,
2013-08-15 01:33:00,59.7,52.2,30.18,ENE,68,0.0,1.1,76,0.00,,---,0.00,VWS V14.01,2013-08-15 06:33:00,
2013-08-15 01:34:00,59.5,52.0,30.18,ENE,68,0.0,0.0,76,0.00,,---,0.00,VWS V14.01,2013-08-15 06:34:00,
2013-08-15 01:35:00,59.4,51.5,30.18,ENE,68,0.0,0.0,75,0.00,,---,0.00,VWS V14.01,2013-08-15 06:35:00,
2013-08-15 01:36:00,59.4,51.4,30.18,ENE,68,0.0,0.0,75,0.00,,---,0.00,VWS V14.01,2013-08-15 06:36:00,
2013-08-15 01:37:00,59.4,51.4,30.18,ENE,68,0.0,0.0,75,0.00,,---,0.00,VWS V14.01,2013-08-15 06:37:00,
2013-08-15 01:38:00,59.4,51.4,30.18,ENE,68,0.0,0.0,75,0.00,,---,0.00,VWS V14.01,2013-08-15 06:38:00,
2013-08-15 01:39:00,59.4,51.8,30.18,ENE,68,0.0,0.0,76,0.00,,---,0.00,VWS V14.01,2013-08-15 06:39:00,
2013-08-15 01:40:00,59.4,51.8,30.18,ENE,68,0.0,0.0,76,0.00,,---,0.00,VWS V14.01,2013-08-15 06:40:00,
2013-08-15 01:41:00,59.4,51.8,30.18,ENE,68,0.0,0.0,76,0.00,,---,0.00,VWS V14.01,2013-08-15 06:41:00,
2013-08-15 01:42:00,59.4,51.8,30.18,ENE,68,0.0,0.0,76,0.00,,---,0.00,VWS V14.01,2013-08-15 06:42:00,
2013-08-15 01:43:00,59.2,51.6,30.18,ENE,68,0.0,0.0,76,0.00,,---,0.00,VWS V14.01,2013-08-15 06:43:00,
2013-08-15 01:44:00,59.2,51.6,30.18,ENE,68,0.0,0.0,76,0.00,,---,0.00,VWS V14.01,2013-08-15 06:44:00,
2013-08-15 01:45:00,59.2,51.6,30.18,East,90,1.6,2.2,76,0.00,,---,0.00,VWS V14.01,2013-08-15 06:45:00,
2013-08-15 01:46:00,59.2,51.6,30.18,East,90,0.9,2.2,76,0.00,,---,0.00,VWS V14.01,2013-08-15 06:46:00,
2013-08-15 01:47:00,59.2,51.6,30.15,East,90,0.0,0.9,76,0.00,,---,0.00,VWS V14.01,2013-08-15 06:47:00,
2013-08-15 01:48:00,59.2,51.6,30.15,East,90,0.0,0.0,76,0.00,,---,0.00,VWS V14.01,2013-08-15 06:48:00,
2013-08-15 01:49:00,59.2,51.6,30.15,East,90,1.3,2.0,76,0.00,,---,0.00,VWS V14.01,2013-08-15 06:49:00,
2013-08-15 01:50:00,59.0,51.5,30.15,East,90,0.0,0.0,76,0.00,,---,0.00,VWS V14.01,2013-08-15 06:50:00,
2013-08-15 01:51:00,59.0,51.5,30.15,East,90,0.0,0.0,76,0.00,,---,0.00,VWS V14.01,2013-08-15 06:51:00,
2013-08-15 01:52:00,58.8,51.3,30.15,East,90,0.0,0.0,76,0.00,,---,0.00,VWS V14.01,2013-08-15 06:52:00,
2013-08-15 01:53:00,58.8,51.3,30.15,East,90,0.0,0.0,76,0.00,,---,0.00,VWS V14.01,2013-08-15 06:53:00,
2013-08-15 01:54:00,58.8,51.3,30.15,East,90,0.0,0.0,76,0.00,,---,0.00,VWS V14.01,2013-08-15 06:54:00,
2013-08-15 01:55:00,58.8,51.6,30.15,East,90,0.0,0.0,77,0.00,,---,0.00,VWS V14.01,2013-08-15 06:55:00,
2013-08-15 01:56:00,58.8,51.6,30.15,East,90,0.0,0.0,77,0.00,,---,0.00,VWS V14.01,2013-08-15 06:56:00,
2013-08-15 01:57:00,58.8,51.6,30.15,East,90,0.0,0.0,77,0.00,,---,0.00,VWS V14.01,2013-08-15 06:57:00,
2013-08-15 01:58:00,58.8,51.6,30.15,ESE,112,0.0,0.0,77,0.00,,---,0.00,VWS V14.01,2013-08-15 06:58:00,
2013-08-15 01:59:00,58.8,51.6,30.15,ESE,112,0.0,0.0,77,0.00,,---,0.00,VWS V14.01,2013-08-15 06:59:00,
2013-08-15 02:00:00,58.6,51.5,30.15,ESE,112,0.0,0.0,77,0.00,,---,0.00,VWS V14.01,2013-08-15 07:00:00,
2013-08-15 02:01:00,58.6,51.5,30.15,ESE,112,0.0,0.0,77,0.00,,---,0.00,VWS V14.01,2013-08-15 07:01:00,
2013-08-15 02:02:00,58.6,51.5,30.15,ESE,112,0.0,0.0,77,0.00,,---,0.00,VWS V14.01,2013-08-15 07:02:00,
2013-08-15 02:03:00,58.6,51.5,30.15,ESE,112,0.0,0.0,77,0.00,,---,0.00,VWS V14.01,2013-08-15 07:03:00,
2013-08-15 02:04:00,58.6,51.5,30.15,ESE,112,0.0,0.0,77,0.00,,---,0.00,VWS V14.01,2013-08-15 07:04:00,
2013-08-15 02:05:00,58.8,52.0,30.15,ESE,112,0.9,1.6,78,0.00,,---,0.00,VWS V14.01,2013-08-15 07:05:00,
2013-08-15 02:06:00,58.8,52.0,30.15,ESE,112,1.6,1.6,78,0.00,,---,0.00,VWS V14.01,2013-08-15 07:06:00,
2013-08-15 02:07:00,58.8,52.0,30.15,ESE,112,0.0,1.6,78,0.00,,---,0.00,VWS V14.01,2013-08-15 07:07:00,
2013-08-15 02:08:00,58.8,52.0,30.15,ESE,112,0.0,0.0,78,0.00,,---,0.00,VWS V14.01,2013-08-15 07:08:00,
2013-08-15 02:09:00,58.8,52.0,30.15,ESE,112,0.0,0.0,78,0.00,,---,0.00,VWS V14.01,2013-08-15 07:09:00,
2013-08-15 02:10:00,59.0,52.2,30.15,ESE,112,0.0,0.0,78,0.00,,---,0.00,VWS V14.01,2013-08-15 07:10:00,
2013-08-15 02:11:00,59.0,52.2,30.15,ESE,112,0.0,0.0,78,0.00,,---,0.00,VWS V14.01,2013-08-15 07:11:00,
2013-08-15 02:12:00,59.0,52.2,30.15,SE,135,0.0,0.0,78,0.00,,---,0.00,VWS V14.01,2013-08-15 07:12:00,
2013-08-15 02:13:00,59.0,52.2,30.15,SE,135,0.0,0.0,78,0.00,,---,0.00,VWS V14.01,2013-08-15 07:13:00,
2013-08-15 02:14:00,58.8,52.0,30.15,SE,135,0.0,0.0,78,0.00,,---,0.00,VWS V14.01,2013-08-15 07:14:00,
2013-08-15 02:15:00,58.8,52.0,30.15,SE,135,0.0,0.0,78,0.00,,---,0.00,VWS V14.01,2013-08-15 07:15:00,
2013-08-15 02:16:00,58.8,52.0,30.15,SE,135,0.0,0.0,78,0.00,,---,0.00,VWS V14.01,2013-08-15 07:16:00,
2013-08-15 02:17:00,58.8,52.0,30.15,SE,135,0.0,0.0,78,0.00,,---,0.00,VWS V14.01,2013-08-15 07:17:00,
2013-08-15 02:18:00,58.8,52.0,30.15,SE,135,0.0,0.0,78,0.00,,---,0.00,VWS V14.01,2013-08-15 07:18:00,
2013-08-15 02:19:00,58.8,52.0,30.15,SE,135,0.0,0.0,78,0.00,,---,0.00,VWS V14.01,2013-08-15 07:19:00,
2013-08-15 02:20:00,58.6,51.8,30.15,SE,135,0.0,0.0,78,0.00,,---,0.00,VWS V14.01,2013-08-15 07:20:00,
2013-08-15 02:21:00,58.6,51.8,30.15,SE,135,0.0,0.0,78,0.00,,---,0.00,VWS V14.01,2013-08-15 07:21:00,
2013-08-15 02:22:00,58.6,51.8,30.15,SE,135,0.0,0.0,78,0.00,,---,0.00,VWS V14.01,2013-08-15 07:22:00,
2013-08-15 02:23:00,58.6,51.8,30.15,SE,135,0.0,0.0,78,0.00,,---,0.00,VWS V14.01,2013-08-15 07:23:00,
2013-08-15 02:24:00,58.5,51.6,30.15,SE,135,0.0,0.0,78,0.00,,---,0.00,VWS V14.01,2013-08-15 07:24:00,
2013-08-15 02:25:00,58.5,51.6,30.15,SE,135,0.0,0.0,78,0.00,,---,0.00,VWS V14.01,2013-08-15 07:25:00,
2013-08-15 02:26:00,58.5,51.6,30.15,SE,135,0.0,0.0,78,0.00,,---,0.00,VWS V14.01,2013-08-15 07:26:00,
2013-08-15 02:27:00,58.5,51.6,30.15,SE,135,0.0,0.0,78,0.00,,---,0.00,VWS V14.01,2013-08-15 07:27:00,
2013-08-15 02:28:00,58.5,51.6,30.15,SE,135,0.0,0.0,78,0.00,,---,0.00,VWS V14.01,2013-08-15 07:28:00,
2013-08-15 02:29:00,58.5,52.0,30.15,SE,135,0.0,0.0,79,0.00,,---,0.00,VWS V14.01,2013-08-15 07:29:00,
2013-08-15 02:30:00,58.5,52.3,30.15,SE,135,0.0,0.0,80,0.00,,---,0.00,VWS V14.01,2013-08-15 07:30:00,
2013-08-15 02:31:00,58.5,52.3,30.15,SE,135,0.0,0.0,80,0.00,,---,0.00,VWS V14.01,2013-08-15 07:31:00,
2013-08-15 02:32:00,58.5,52.0,30.15,SE,135,0.0,0.0,79,0.00,,---,0.00,VWS V14.01,2013-08-15 07:32:00,
2013-08-15 02:34:00,58.3,51.5,30.15,SE,135,0.0,0.0,78,0.00,,---,0.00,VWS V14.01,2013-08-15 07:34:00,
2013-08-15 02:35:00,58.3,51.5,30.15,SE,135,0.0,0.0,78,0.00,,---,0.00,VWS V14.01,2013-08-15 07:35:00,
2013-08-15 02:36:00,58.3,51.5,30.15,SE,135,0.0,0.0,78,0.00,,---,0.00,VWS V14.01,2013-08-15 07:36:00,
2013-08-15 02:37:00,58.3,51.5,30.15,SE,135,0.0,0.0,78,0.00,,---,0.00,VWS V14.01,2013-08-15 07:37:00,
2013-08-15 02:38:00,58.3,51.5,30.15,SE,135,0.0,0.0,78,0.00,,---,0.00,VWS V14.01,2013-08-15 07:38:00,
2013-08-15 02:39:00,58.5,52.0,30.15,SE,135,0.0,0.0,79,0.00,,---,0.00,VWS V14.01,2013-08-15 07:39:00,
2013-08-15 02:40:00,58.5,52.3,30.15,SE,135,0.0,0.0,80,0.00,,---,0.00,VWS V14.01,2013-08-15 07:40:00,
2013-08-15 02:41:00,58.5,52.3,30.15,SE,135,0.0,0.0,80,0.00,,---,0.00,VWS V14.01,2013-08-15 07:41:00,
2013-08-15 02:42:00,58.5,52.3,30.15,SE,135,0.0,0.0,80,0.00,,---,0.00,VWS V14.01,2013-08-15 07:42:00,
2013-08-15 02:43:00,58.6,52.5,30.15,SE,135,0.0,0.0,80,0.00,,---,0.00,VWS V14.01,2013-08-15 07:43:00,
2013-08-15 02:44:00,58.6,52.8,30.15,SE,135,0.0,0.0,81,0.00,,---,0.00,VWS V14.01,2013-08-15 07:44:00,
2013-08-15 02:45:00,58.6,52.8,30.15,SE,135,0.0,0.0,81,0.00,,---,0.00,VWS V14.01,2013-08-15 07:45:00,
2013-08-15 02:46:00,58.6,52.8,30.15,SE,135,0.0,0.0,81,0.00,,---,0.00,VWS V14.01,2013-08-15 07:46:00,
2013-08-15 02:47:00,58.6,52.8,30.15,SE,135,0.0,0.0,81,0.00,,---,0.00,VWS V14.01,2013-08-15 07:47:00,
2013-08-15 02:48:00,58.6,52.8,30.15,SE,135,0.0,0.0,81,0.00,,---,0.00,VWS V14.01,2013-08-15 07:48:00,
2013-08-15 02:49:00,58.5,52.3,30.15,SE,135,0.0,0.0,80,0.00,,---,0.00,VWS V14.01,2013-08-15 07:49:00,
2013-08-15 02:50:00,58.3,51.8,30.15,SE,135,0.0,0.0,79,0.00,,---,0.00,VWS V14.01,2013-08-15 07:50:00,
2013-08-15 02:51:00,58.3,51.8,30.15,SE,135,0.0,0.0,79,0.00,,---,0.00,VWS V14.01,2013-08-15 07:51:00,
2013-08-15 02:53:00,58.1,51.6,30.15,SE,135,0.0,0.0,79,0.00,,---,0.00,VWS V14.01,2013-08-15 07:53:00,
2013-08-15 02:54:00,58.1,51.6,30.15,SE,135,0.0,0.0,79,0.00,,---,0.00,VWS V14.01,2013-08-15 07:54:00,
2013-08-15 02:55:00,58.1,52.0,30.15,SE,135,0.0,0.0,80,0.00,,---,0.00,VWS V14.01,2013-08-15 07:55:00,
2013-08-15 02:56:00,58.1,52.0,30.15,SE,135,0.0,0.0,80,0.00,,---,0.00,VWS V14.01,2013-08-15 07:56:00,
2013-08-15 02:57:00,58.1,52.0,30.15,SE,135,0.0,0.0,80,0.00,,---,0.00,VWS V14.01,2013-08-15 07:57:00,
2013-08-15 02:58:00,58.3,52.2,30.15,SE,135,0.0,0.0,80,0.00,,---,0.00,VWS V14.01,2013-08-15 07:58:00,
2013-08-15 02:59:00,58.3,52.2,30.15,SE,135,0.0,0.0,80,0.00,,---,0.00,VWS V14.01,2013-08-15 07:59:00,
2013-08-15 03:00:00,58.5,52.7,30.15,SE,135,0.0,0.0,81,0.00,,---,0.00,VWS V14.01,2013-08-15 08:00:00,
2013-08-15 03:01:00,58.5,52.7,30.15,SE,135,0.0,0.0,81,0.00,,---,0.00,VWS V14.01,2013-08-15 08:01:00,
2013-08-15 03:02:00,58.5,52.7,30.15,SE,135,0.0,0.0,81,0.00,,---,0.00,VWS V14.01,2013-08-15 08:02:00,
2013-08-15 03:03:00,58.5,52.7,30.15,SE,135,0.0,0.0,81,0.00,,---,0.00,VWS V14.01,2013-08-15 08:03:00,
2013-08-15 03:04:00,58.5,52.7,30.15,SE,135,0.0,0.0,81,0.00,,---,0.00,VWS V14.01,2013-08-15 08:04:00,
2013-08-15 03:05:00,58.3,52.2,30.15,SE,135,0.0,0.0,80,0.00,,---,0.00,VWS V14.01,2013-08-15 08:05:00,
2013-08-15 03:06:00,58.3,52.2,30.15,SE,135,0.0,0.0,80,0.00,,---,0.00,VWS V14.01,2013-08-15 08:06:00,
2013-08-15 03:07:00,58.1,52.0,30.15,SE,135,0.0,0.0,80,0.00,,---,0.00,VWS V14.01,2013-08-15 08:07:00,
2013-08-15 03:08:00,58.1,52.0,30.15,SE,135,0.0,0.0,80,0.00,,---,0.00,VWS V14.01,2013-08-15 08:08:00,
2013-08-15 03:09:00,58.1,52.0,30.15,SE,135,0.0,0.0,80,0.00,,---,0.00,VWS V14.01,2013-08-15 08:09:00,
2013-08-15 03:10:00,58.1,52.0,30.15,SE,135,0.0,0.0,80,0.00,,---,0.00,VWS V14.01,2013-08-15 08:10:00,
2013-08-15 03:11:00,58.1,52.0,30.15,SE,135,0.0,0.0,80,0.00,,---,0.00,VWS V14.01,2013-08-15 08:11:00,
2013-08-15 03:12:00,58.1,52.0,30.15,SE,135,0.0,0.0,80,0.00,,---,0.00,VWS V14.01,2013-08-15 08:12:00,
2013-08-15 03:13:00,58.1,52.0,30.15,SE,135,0.0,0.0,80,0.00,,---,0.00,VWS V14.01,2013-08-15 08:13:00,
2013-08-15 03:14:00,57.9,51.8,30.15,SE,135,0.0,0.0,80,0.00,,---,0.00,VWS V14.01,2013-08-15 08:14:00,
2013-08-15 03:15:00,57.9,51.8,30.15,SE,135,0.0,0.0,80,0.00,,---,0.00,VWS V14.01,2013-08-15 08:15:00,
2013-08-15 03:16:00,57.9,51.8,30.15,SE,135,0.0,0.0,80,0.00,,---,0.00,VWS V14.01,2013-08-15 08:16:00,
2013-08-15 03:17:00,57.9,51.8,30.15,SE,135,0.0,0.0,80,0.00,,---,0.00,VWS V14.01,2013-08-15 08:17:00,
2013-08-15 03:18:00,57.9,51.8,30.15,SE,135,0.0,0.0,80,0.00,,---,0.00,VWS V14.01,2013-08-15 08:18:00,
2013-08-15 03:19:00,57.9,51.8,30.15,SE,135,0.0,0.0,80,0.00,,---,0.00,VWS V14.01,2013-08-15 08:19:00,
2013-08-15 03:20:00,57.9,51.8,30.15,SE,135,0.0,0.0,80,0.00,,---,0.00,VWS V14.01,2013-08-15 08:20:00,
2013-08-15 03:21:00,57.9,51.8,30.15,SE,135,0.0,0.0,80,0.00,,---,0.00,VWS V14.01,2013-08-15 08:21:00,
2013-08-15 03:22:00,57.9,51.8,30.15,SE,135,0.0,0.0,80,0.00,,---,0.00,VWS V14.01,2013-08-15 08:22:00,
2013-08-15 03:23:00,57.9,51.8,30.15,SE,135,0.0,0.0,80,0.00,,---,0.00,VWS V14.01,2013-08-15 08:23:00,
2013-08-15 03:24:00,57.9,51.8,30.15,SE,135,0.0,0.0,80,0.00,,---,0.00,VWS V14.01,2013-08-15 08:24:00,
2013-08-15 03:25:00,57.7,51.6,30.15,SE,135,0.0,0.0,80,0.00,,---,0.00,VWS V14.01,2013-08-15 08:25:00,